This is the latest recevied weather packets stored in our database for station/object WA4IKQ. If no packets are shown the sender has not sent any weather packets the latest 10 day(s).
| Time | Temp. | Humidity | Pressure | Rain* | Wind** | Luminosity | Snow |
|---|---|---|---|---|---|---|---|
| 1778185677 | 35.56° C | 29% | 1012.6 hPa | 0 mm | 0 m/s | - | - |
| 1778185578 | 35.56° C | 29% | 1012.6 hPa | 0 mm | 0 m/s | - | - |
| 1778185350 | 35.56° C | 28% | 1012.6 hPa | 0 mm | 3.13 m/s, 225° | - | - |
| 1778185278 | 35.56° C | 28% | 1012.6 hPa | 0 mm | 3.13 m/s, 225° | - | - |
| 1778185051 | 35.56° C | 27% | 1012.9 hPa | 0 mm | 2.68 m/s, 194° | - | - |
| 1778184979 | 35.56° C | 27% | 1012.9 hPa | 0 mm | 2.68 m/s, 194° | - | - |
| 1778184749 | 36.11° C | 28% | 1012.9 hPa | 0 mm | 3.13 m/s, 194° | - | - |
| 1778184420 | 36.11° C | 27% | 1012.9 hPa | 0 mm | 2.68 m/s, 139° | - | - |
| 1778184376 | 36.11° C | 27% | 1012.9 hPa | 0 mm | 2.68 m/s, 139° | - | - |
| 1778184133 | 36.11° C | 28% | 1013 hPa | 0 mm | 2.24 m/s, 186° | - | - |
| 1778184077 | 36.11° C | 28% | 1013 hPa | 0 mm | 2.24 m/s, 186° | - | - |
| 1778183831 | 35.56° C | 31% | 1013 hPa | 0 mm | 3.58 m/s, 148° | - | - |
| 1778183777 | 35.56° C | 31% | 1013 hPa | 0 mm | 3.58 m/s, 148° | - | - |
| 1778183527 | 35.56° C | 31% | 1013.1 hPa | 0 mm | 1.79 m/s, 221° | - | - |
| 1778183478 | 35.56° C | 31% | 1013.1 hPa | 0 mm | 1.79 m/s, 221° | - | - |
| 1778183333 | 35.56° C | 31% | 1013.2 hPa | 0 mm | 2.24 m/s, 203° | - | - |
| 1778183284 | 35.56° C | 31% | 1013.2 hPa | 0 mm | 2.24 m/s, 203° | - | - |
| 1778183178 | 35.56° C | 31% | 1013.2 hPa | 0 mm | 2.24 m/s, 203° | - | - |
| 1778182912 | 36.11° C | 31% | 1013.3 hPa | 0 mm | 1.79 m/s, 195° | - | - |
| 1778182878 | 36.11° C | 31% | 1013.3 hPa | 0 mm | 1.79 m/s, 195° | - | - |
| 1778182641 | 36.11° C | 31% | 1013.3 hPa | 0 mm | 1.79 m/s, 150° | - | - |
| 1778182576 | 36.11° C | 31% | 1013.3 hPa | 0 mm | 1.79 m/s, 150° | - | - |
| 1778182348 | 36.11° C | 31% | 1013.4 hPa | 0 mm | 0.89 m/s, 232° | - | - |
| 1778182276 | 36.11° C | 31% | 1013.4 hPa | 0 mm | 0.89 m/s, 232° | - | - |
| 1778181782 | 36.11° C | 32% | 1013.5 hPa | 0 mm | 2.68 m/s, 193° | - | - |
* Rain latest hour (hover to see other rain measurements)
** Current wind speed in m/s (hover to see current wind gust speed)